Canyon City, Oregon
Current Conditions -  °F | °C
As of 5:55 PM on Saturday 25 Oct 2014 (Local Time) from KGCD Reporting Station
Overcast Overcast  
Wind Chill: 16°   Ceiling: 9000
Heat Index: 16°   Visibility: 10mi
Dew Point:   Wind: 22mph
Humidity: 38%   Direction: 200°SSW
Pressure: 29.67"   Gusts: 41mph
Location:  44.39°N, 118.95°W
Report Text: KGCD 260055Z AUTO 20019G36KT 10SM SCT049 SCT070 OVC090 16/02 A2967 RMK AO2 T01600015
Loading
Personal Weather Stations






























Interactive Weather Map
Tropical Storm Tracking
New forecast layout! Learn more

10-Day Weather Forecast

Advertisements
Track Severe Weather on mobile